Karmel — 9HA2896 — position and weather

sailwx.info

Track history (hours):
 
Tides and Currents Weather Stations Pressure Air Temp Water Temp Dewpoint Dewpoint Depression Visibility Wind Speed Wind Dir Waves Ship Positions

Karmel

Last reported at 2015-Mar-28 02:24 UTC. Time now 2015-Mar-30 07:10 UTC.
Position N 59°59' E 027°05'.

Length 90 m; draft 3.7 m.

Type: Cargo ship. MMSI: 256632000.

Date/timePositionNaut miles runAvg speedWind from/ knotsBaromVisibWave heightAir tempDewpointWater temp
2015-Mar-28 02:24N 59°59' E 027°05'1011.6
2015-Mar-28 01:34N 59°59' E 026°45'6212.0
2015-Mar-27 20:21N 59°43' E 024°45'39511.3
2015-Mar-26 09:33N 55°14' E 015°48'1111.4
2015-Mar-26 08:34N 55°08' E 015°31'1111.1
2015-Mar-26 07:33N 55°02' E 015°15'1110.9
2015-Mar-26 06:34N 54°58' E 014°57'1110.5
2015-Mar-26 05:34N 55°01' E 014°40'9 9.4
2015-Mar-26 04:33N 55°05' E 014°25'9 8.8
2015-Mar-26 03:33N 55°08' E 014°10'8 7.9
2015-Mar-26 02:33N 55°09' E 013°57'8 7.9
2015-Mar-26 01:33N 55°11' E 013°43'8 6.8
2015-Mar-26 00:23N 55°12' E 013°29'7 5.9
2015-Mar-25 23:12N 55°13' E 013°17'4 5.3
2015-Mar-25 22:31N 55°13' E 013°11'5 4.9
2015-Mar-25 21:33N 55°14' E 013°03'5 4.6
2015-Mar-25 20:34N 55°15' E 012°55'5 5.4
2015-Mar-25 19:34N 55°16' E 012°46'7 6.6
2015-Mar-25 18:34N 55°22' E 012°39'1111.0
2015-Mar-25 17:34N 55°33' E 012°42'1010.3
2015-Mar-25 16:34N 55°43' E 012°41'1010.3
2015-Mar-25 15:33N 55°53' E 012°44'9 8.9
2015-Mar-25 14:34N 56°02' E 012°41'0 0.0
2015-Mar-25 13:31N 56°02' E 012°41'0 0.0
2015-Mar-25 12:31N 56°02' E 012°41'0 0.0
2015-Mar-25 11:31N 56°02' E 012°41'0 0.0
2015-Mar-25 10:31N 56°02' E 012°41'0 0.0
2015-Mar-25 09:31N 56°02' E 012°41'0 0.0
2015-Mar-25 08:31N 56°02' E 012°41'0 0.0
2015-Mar-25 07:22N 56°02' E 012°41'0 0.0
2015-Mar-25 06:31N 56°02' E 012°41'0 0.0
2015-Mar-25 05:28N 56°02' E 012°41'0 0.0
2015-Mar-25 04:31N 56°02' E 012°41'0 0.0
2015-Mar-25 03:28N 56°02' E 012°41'0 0.0
2015-Mar-25 02:28N 56°02' E 012°41'0 0.0
2015-Mar-25 01:28N 56°02' E 012°41'0 0.0
2015-Mar-25 00:28N 56°02' E 012°41'0 0.0
2015-Mar-24 23:28N 56°02' E 012°41'0 0.0
2015-Mar-24 22:31N 56°02' E 012°41'0 0.0
2015-Mar-24 21:31N 56°02' E 012°41'0 0.0
2015-Mar-24 20:29N 56°02' E 012°41'0 0.0
2015-Mar-24 19:23N 56°02' E 012°41'0 0.0
2015-Mar-24 18:29N 56°02' E 012°41'0 0.0
2015-Mar-24 17:26N 56°02' E 012°41'0 0.0
2015-Mar-24 16:29N 56°02' E 012°41'0 0.0
2015-Mar-24 15:32N 56°02' E 012°41'0 0.0
2015-Mar-24 14:29N 56°02' E 012°41'0 0.0
2015-Mar-24 13:29N 56°02' E 012°41'0 0.0
2015-Mar-24 12:29N 56°02' E 012°41'0 0.0
2015-Mar-24 11:32N 56°02' E 012°41'0 0.0
2015-Mar-24 10:32N 56°02' E 012°41'0 0.0
2015-Mar-24 09:32N 56°02' E 012°41'0 0.0
2015-Mar-24 08:29N 56°02' E 012°41'0 0.0
2015-Mar-24 07:29N 56°02' E 012°41'0 0.0
2015-Mar-24 06:29N 56°02' E 012°41'0 0.0
2015-Mar-24 05:32N 56°02' E 012°41'0 0.0
2015-Mar-24 03:26N 56°02' E 012°41'0 0.0
2015-Mar-24 02:27N 56°02' E 012°41'0 0.0
2015-Mar-24 01:20N 56°02' E 012°41'0 0.0
2015-Mar-24 00:26N 56°02' E 012°41'0 0.0
2015-Mar-23 23:32N 56°02' E 012°41'0 0.0
2015-Mar-23 22:32N 56°02' E 012°41'0 0.0
2015-Mar-23 21:32N 56°02' E 012°41'0 0.0
2015-Mar-23 20:28N 56°02' E 012°41'0 0.0
2015-Mar-23 19:31N 56°02' E 012°41'0 0.0
2015-Mar-23 18:31N 56°02' E 012°41'0 0.0
2015-Mar-23 17:31N 56°02' E 012°41'0 0.0
2015-Mar-23 16:31N 56°02' E 012°41'0 0.0
2015-Mar-23 15:31N 56°02' E 012°41'0 0.0
2015-Mar-23 14:27N 56°02' E 012°41'0 0.0
2015-Mar-23 13:15N 56°02' E 012°41'0 0.0
2015-Mar-23 12:27N 56°02' E 012°41'0 0.0
2015-Mar-23 11:33N 56°02' E 012°41'0 0.0
2015-Mar-23 10:21N 56°02' E 012°41'0 0.0
2015-Mar-23 09:21N 56°02' E 012°41'0 0.0
2015-Mar-22 20:33N 56°02' E 012°41'6 6.4
2015-Mar-22 19:33N 55°55' E 012°44'10 9.6
2015-Mar-22 18:33N 55°46' E 012°42'1010.4
2015-Mar-22 17:33N 55°36' E 012°42'1110.7
2015-Mar-22 16:33N 55°25' E 012°42'9 8.9
2015-Mar-22 15:30N 55°17' E 012°50'3410.6
2015-Mar-22 12:17N 55°14' E 013°50'810.5
2015-Mar-22 11:33N 55°14' E 014°03'10 9.6
2015-Mar-22 10:33N 55°16' E 014°20'1010.3
2015-Mar-22 09:33N 55°23' E 014°33'1010.3
2015-Mar-22 08:34N 55°29' E 014°47'1110.7
2015-Mar-22 07:33N 55°35' E 015°04'1110.9
2015-Mar-22 06:30N 55°41' E 015°21'376 9.6
2015-Mar-20 15:33N 59°39' E 024°25'10 9.8
2015-Mar-20 14:33N 59°43' E 024°42'52 9.5
2015-Mar-20 09:07N 59°59' E 026°19'5 9.6
2015-Mar-20 08:34N 60°01' E 026°30'  
Track history (hours):
 
Tides and Currents Weather Stations Pressure Air Temp Water Temp Dewpoint Dewpoint Depression Visibility Wind Speed Wind Dir Waves Ship Positions

Karmel

Last reported at 2015-Mar-28 02:24 UTC. Time now 2015-Mar-30 07:10 UTC.
Position N 59°59' E 027°05'.

Length 90 m; draft 3.7 m.

Type: Cargo ship. MMSI: 256632000.

Date/timePositionNaut miles runAvg speedWind from/ knotsBaromVisibWave heightAir tempDewpointWater temp
2015-Mar-28 02:24N 59°59' E 027°05'1011.6
2015-Mar-28 01:34N 59°59' E 026°45'6212.0
2015-Mar-27 20:21N 59°43' E 024°45'39511.3
2015-Mar-26 09:33N 55°14' E 015°48'1111.4
2015-Mar-26 08:34N 55°08' E 015°31'1111.1
2015-Mar-26 07:33N 55°02' E 015°15'1110.9
2015-Mar-26 06:34N 54°58' E 014°57'1110.5
2015-Mar-26 05:34N 55°01' E 014°40'9 9.4
2015-Mar-26 04:33N 55°05' E 014°25'9 8.8
2015-Mar-26 03:33N 55°08' E 014°10'8 7.9
2015-Mar-26 02:33N 55°09' E 013°57'8 7.9
2015-Mar-26 01:33N 55°11' E 013°43'8 6.8
2015-Mar-26 00:23N 55°12' E 013°29'7 5.9
2015-Mar-25 23:12N 55°13' E 013°17'4 5.3
2015-Mar-25 22:31N 55°13' E 013°11'5 4.9
2015-Mar-25 21:33N 55°14' E 013°03'5 4.6
2015-Mar-25 20:34N 55°15' E 012°55'5 5.4
2015-Mar-25 19:34N 55°16' E 012°46'7 6.6
2015-Mar-25 18:34N 55°22' E 012°39'1111.0
2015-Mar-25 17:34N 55°33' E 012°42'1010.3
2015-Mar-25 16:34N 55°43' E 012°41'1010.3
2015-Mar-25 15:33N 55°53' E 012°44'9 8.9
2015-Mar-25 14:34N 56°02' E 012°41'0 0.0
2015-Mar-25 13:31N 56°02' E 012°41'0 0.0
2015-Mar-25 12:31N 56°02' E 012°41'0 0.0
2015-Mar-25 11:31N 56°02' E 012°41'0 0.0
2015-Mar-25 10:31N 56°02' E 012°41'0 0.0
2015-Mar-25 09:31N 56°02' E 012°41'0 0.0
2015-Mar-25 08:31N 56°02' E 012°41'0 0.0
2015-Mar-25 07:22N 56°02' E 012°41'0 0.0
2015-Mar-25 06:31N 56°02' E 012°41'0 0.0
2015-Mar-25 05:28N 56°02' E 012°41'0 0.0
2015-Mar-25 04:31N 56°02' E 012°41'0 0.0
2015-Mar-25 03:28N 56°02' E 012°41'0 0.0
2015-Mar-25 02:28N 56°02' E 012°41'0 0.0
2015-Mar-25 01:28N 56°02' E 012°41'0 0.0
2015-Mar-25 00:28N 56°02' E 012°41'0 0.0
2015-Mar-24 23:28N 56°02' E 012°41'0 0.0
2015-Mar-24 22:31N 56°02' E 012°41'0 0.0
2015-Mar-24 21:31N 56°02' E 012°41'0 0.0
2015-Mar-24 20:29N 56°02' E 012°41'0 0.0
2015-Mar-24 19:23N 56°02' E 012°41'0 0.0
2015-Mar-24 18:29N 56°02' E 012°41'0 0.0
2015-Mar-24 17:26N 56°02' E 012°41'0 0.0
2015-Mar-24 16:29N 56°02' E 012°41'0 0.0
2015-Mar-24 15:32N 56°02' E 012°41'0 0.0
2015-Mar-24 14:29N 56°02' E 012°41'0 0.0
2015-Mar-24 13:29N 56°02' E 012°41'0 0.0
2015-Mar-24 12:29N 56°02' E 012°41'0 0.0
2015-Mar-24 11:32N 56°02' E 012°41'0 0.0
2015-Mar-24 10:32N 56°02' E 012°41'0 0.0
2015-Mar-24 09:32N 56°02' E 012°41'0 0.0
2015-Mar-24 08:29N 56°02' E 012°41'0 0.0
2015-Mar-24 07:29N 56°02' E 012°41'0 0.0
2015-Mar-24 06:29N 56°02' E 012°41'0 0.0
2015-Mar-24 05:32N 56°02' E 012°41'0 0.0
2015-Mar-24 03:26N 56°02' E 012°41'0 0.0
2015-Mar-24 02:27N 56°02' E 012°41'0 0.0
2015-Mar-24 01:20N 56°02' E 012°41'0 0.0
2015-Mar-24 00:26N 56°02' E 012°41'0 0.0
2015-Mar-23 23:32N 56°02' E 012°41'0 0.0
2015-Mar-23 22:32N 56°02' E 012°41'0 0.0
2015-Mar-23 21:32N 56°02' E 012°41'0 0.0
2015-Mar-23 20:28N 56°02' E 012°41'0 0.0
2015-Mar-23 19:31N 56°02' E 012°41'0 0.0
2015-Mar-23 18:31N 56°02' E 012°41'0 0.0
2015-Mar-23 17:31N 56°02' E 012°41'0 0.0
2015-Mar-23 16:31N 56°02' E 012°41'0 0.0
2015-Mar-23 15:31N 56°02' E 012°41'0 0.0
2015-Mar-23 14:27N 56°02' E 012°41'0 0.0
2015-Mar-23 13:15N 56°02' E 012°41'0 0.0
2015-Mar-23 12:27N 56°02' E 012°41'0 0.0
2015-Mar-23 11:33N 56°02' E 012°41'0 0.0
2015-Mar-23 10:21N 56°02' E 012°41'0 0.0
2015-Mar-23 09:21N 56°02' E 012°41'0 0.0
2015-Mar-22 20:33N 56°02' E 012°41'6 6.4
2015-Mar-22 19:33N 55°55' E 012°44'10 9.6
2015-Mar-22 18:33N 55°46' E 012°42'1010.4
2015-Mar-22 17:33N 55°36' E 012°42'1110.7
2015-Mar-22 16:33N 55°25' E 012°42'9 8.9
2015-Mar-22 15:30N 55°17' E 012°50'3410.6
2015-Mar-22 12:17N 55°14' E 013°50'810.5
2015-Mar-22 11:33N 55°14' E 014°03'10 9.6
2015-Mar-22 10:33N 55°16' E 014°20'1010.3
2015-Mar-22 09:33N 55°23' E 014°33'1010.3
2015-Mar-22 08:34N 55°29' E 014°47'1110.7
2015-Mar-22 07:33N 55°35' E 015°04'1110.9
2015-Mar-22 06:30N 55°41' E 015°21'376 9.6
2015-Mar-20 15:33N 59°39' E 024°25'10 9.8
2015-Mar-20 14:33N 59°43' E 024°42'52 9.5
2015-Mar-20 09:07N 59°59' E 026°19'5 9.6
2015-Mar-20 08:34N 60°01' E 026°30'  

Dump ship's entire track history